Airfield :
LOGIN :

Register | Disclaimer

   EN    FR    IT 

 










Legend :    VFR   Marginal VFR   IFR   Intensive IFR   Very Intensive IFR
Visi :
Ceiling :
>= 8 km
>= 3000ft
5 to 8 km
1000 to 3000 ft
1500m to 5 km
500 to 1000 ft
800 to 1500m
200 to 500 ft
< 800m
< 200 ft
Symbols :   Thunderstorms  Fog  Heavy snow  Heavy precipitations  Wind > 20 kt
SIGMETs :     Misc.  Thunderstorms  Icing  Turbulence  Mountain Waves  Volcanic Ashes






- Airport Elevation : 83 ft
- IATA code : LHR


EGLL - London Heathrow

CURRENT METAR :
  • 270750Z 03005KT 350V070 8000 -RA BKN006 OVC010 03/01 Q0996

EXPIRED METARs :
  • 270720Z AUTO 06005KT 9999 -RA BKN007/// BKN012/// OVC029/// //////TCU 03/02 Q0995 TEMPO 4000 RADZ
  • 270650Z AUTO 07006KT 7000 -RA SCT007 BKN011 BKN015 03/01 Q0995 TEMPO 4000 RA BKN007
  • 270620Z AUTO 09007KT 7000 -RA SCT008/// BKN011/// OVC016/// //////TCU 03/01 Q0996 TEMPO 4000 RA BKN008
  • 270550Z AUTO 11008KT 5000 -RA BKN007/// OVC015/// //////TCU 03/02 Q0996 TEMPO 4000 RA
  • 270520Z AUTO 08005KT 5000 -RA FEW006 BKN011 OVC018 04/02 Q0997 TEMPO 4000 RA BKN006

TAF TAF EGLL
Valid from the 27 at 06:00 until the 28 at 12:00 UTC


270458Z 2706/2812 14005KT 9999 -RA BKN014
TEMPO 2706/2711 4000 RADZ BKN009
BECMG 2707/2710 35010KT
PROB40
TEMPO 2708/2712 RASN
BECMG 2710/2713 33015G25KT FEW030
BECMG 2716/2719 28010KT
BECMG 2800/2803 20006KT
BECMG 2807/2810 18015G25KT BKN010
TEMPO 2810/2812 4000 RA BKN006



MET'MAP, your aeronautical weather chart ! - Copyright ORBIFLY December 2007 - Disclaimer

ORBIFLY MET'MAP TEAM :

Programming & Development : Alexandra Zaïnal
Concept & original design : Baudouin d'Aumeries
Assistance for programming : Marc-Olivier Méhu
Technical & hardware support : Manuel Goepfert

Contact : metmap@orbifly.com




SOURCES & CREDITS :

   NOAA